createdAt,value
2017-07-23T00:00:02.546Z,20.16
2017-07-23T00:00:06.782Z,20.16
2017-07-23T00:00:11.249Z,20.15
2017-07-23T00:00:15.470Z,20.15
2017-07-23T00:00:19.815Z,20.15
2017-07-23T00:00:24.283Z,20.15
2017-07-23T00:00:28.769Z,20.16
2017-07-23T00:00:33.223Z,20.15
2017-07-23T00:00:37.682Z,20.14
2017-07-23T00:00:42.015Z,20.15
2017-07-23T00:00:46.471Z,20.15
2017-07-23T00:00:50.921Z,20.15
2017-07-23T00:00:55.282Z,20.15
2017-07-23T00:00:59.757Z,20.14
2017-07-23T00:01:04.131Z,20.15
2017-07-23T00:01:08.586Z,20.14
2017-07-23T00:01:13.042Z,20.15
2017-07-23T00:01:17.511Z,20.15
2017-07-23T00:01:21.842Z,20.14
2017-07-23T00:01:26.307Z,20.14
2017-07-23T00:01:30.662Z,20.14
2017-07-23T00:01:35.141Z,20.14
2017-07-23T00:01:39.586Z,20.14
2017-07-23T00:01:44.048Z,20.14
2017-07-23T00:01:48.516Z,20.14
2017-07-23T00:01:52.993Z,20.14
2017-07-23T00:01:57.095Z,20.14
2017-07-23T00:02:01.554Z,20.13
2017-07-23T00:02:05.793Z,20.14
2017-07-23T00:02:10.266Z,20.14
2017-07-23T00:02:14.733Z,20.14
2017-07-23T00:02:19.062Z,20.13
2017-07-23T00:02:23.545Z,20.13
2017-07-23T00:02:28.008Z,20.13
2017-07-23T00:02:32.469Z,20.13
2017-07-23T00:02:36.920Z,20.12
2017-07-23T00:02:41.380Z,20.12
2017-07-23T00:02:45.851Z,20.12
2017-07-23T00:02:50.317Z,20.12
2017-07-23T00:02:54.543Z,20.12
2017-07-23T00:02:58.771Z,20.12
2017-07-23T00:03:03.053Z,20.13
2017-07-23T00:03:07.516Z,20.12
2017-07-23T00:03:11.996Z,20.12
2017-07-23T00:03:16.364Z,20.11
2017-07-23T00:03:20.723Z,20.11
2017-07-23T00:03:25.169Z,20.11
2017-07-23T00:03:29.634Z,20.12
2017-07-23T00:03:34.093Z,20.11
2017-07-23T00:03:38.539Z,20.11
2017-07-23T00:03:42.891Z,20.11
2017-07-23T00:03:47.235Z,20.11
2017-07-23T00:03:51.579Z,20.11
2017-07-23T00:03:56.050Z,20.1
2017-07-23T00:04:00.518Z,20.11
2017-07-23T00:04:04.876Z,20.11
2017-07-23T00:04:09.104Z,20.1
2017-07-23T00:04:13.582Z,20.1
2017-07-23T00:04:18.050Z,20.1
2017-07-23T00:04:22.514Z,20.1
2017-07-23T00:04:26.969Z,20.1
2017-07-23T00:04:31.187Z,20.1
2017-07-23T00:04:35.532Z,20.1
2017-07-23T00:04:39.877Z,20.09
2017-07-23T00:04:44.216Z,20.1
2017-07-23T00:04:48.661Z,20.09
2017-07-23T00:04:53.013Z,20.09
2017-07-23T00:04:57.339Z,20.09
2017-07-23T00:05:01.798Z,20.09
2017-07-23T00:05:06.021Z,20.09
2017-07-23T00:05:10.493Z,20.09
2017-07-23T00:05:14.838Z,20.09
2017-07-23T00:05:19.056Z,20.08
2017-07-23T00:05:23.395Z,20.09
2017-07-23T00:05:27.875Z,20.09
2017-07-23T00:05:32.361Z,20.08
2017-07-23T00:05:36.831Z,20.09
2017-07-23T00:05:41.163Z,20.08
2017-07-23T00:05:45.617Z,20.08
2017-07-23T00:05:50.088Z,20.08
2017-07-23T00:05:54.551Z,20.08
2017-07-23T00:05:59.024Z,20.08
2017-07-23T00:06:03.563Z,20.07
2017-07-23T00:06:08.033Z,20.07
2017-07-23T00:06:12.502Z,20.07
2017-07-23T00:06:16.965Z,20.07
2017-07-23T00:06:21.319Z,20.07
2017-07-23T00:06:25.658Z,20.07
2017-07-23T00:06:29.884Z,20.06
2017-07-23T00:06:34.241Z,20.06
2017-07-23T00:06:38.705Z,20.06
2017-07-23T00:06:43.161Z,20.05
2017-07-23T00:06:47.664Z,20.06
2017-07-23T00:06:52.021Z,20.06
2017-07-23T00:06:56.369Z,20.06
2017-07-23T00:07:00.712Z,20.05
2017-07-23T00:07:05.361Z,20.05
2017-07-23T00:07:09.836Z,20.05
2017-07-23T00:07:14.299Z,20.05
2017-07-23T00:07:18.758Z,20.04
2017-07-23T00:07:23.237Z,20.04
2017-07-23T00:07:27.684Z,20.04
2017-07-23T00:07:31.909Z,20.04
2017-07-23T00:07:36.370Z,20.04
2017-07-23T00:07:40.724Z,20.04
2017-07-23T00:07:45.192Z,20.04
2017-07-23T00:07:49.658Z,20.04
2017-07-23T00:07:54.121Z,20.04
2017-07-23T00:07:58.583Z,20.03
2017-07-23T00:08:03.039Z,20.03
2017-07-23T00:08:07.258Z,20.03
2017-07-23T00:08:11.598Z,20.03
2017-07-23T00:08:16.070Z,20.03
2017-07-23T00:08:20.293Z,20.02
2017-07-23T00:08:24.619Z,20.02
2017-07-23T00:08:28.976Z,20.03
2017-07-23T00:08:33.339Z,20.02
2017-07-23T00:08:37.817Z,20.02
2017-07-23T00:08:42.157Z,20.01
2017-07-23T00:08:46.627Z,20.01
2017-07-23T00:08:51.083Z,20.02
2017-07-23T00:08:55.319Z,20.01
2017-07-23T00:08:59.668Z,20.01
2017-07-23T00:09:04.011Z,20.02
2017-07-23T00:09:08.241Z,20.01
2017-07-23T00:09:12.704Z,20.01
2017-07-23T00:09:17.155Z,20.01
2017-07-23T00:09:21.515Z,20.01
2017-07-23T00:09:25.986Z,20
2017-07-23T00:09:30.333Z,20
2017-07-23T00:09:34.808Z,20
2017-07-23T00:09:39.272Z,20
2017-07-23T00:09:43.608Z,20
2017-07-23T00:09:48.083Z,20
2017-07-23T00:09:52.550Z,20
2017-07-23T00:09:56.890Z,20
2017-07-23T00:10:01.353Z,20
2017-07-23T00:10:05.682Z,20
2017-07-23T00:10:09.795Z,20
2017-07-23T00:10:14.267Z,19.99
2017-07-23T00:10:18.744Z,20
2017-07-23T00:10:23.198Z,19.99
2017-07-23T00:10:27.662Z,19.99
2017-07-23T00:10:31.898Z,20
2017-07-23T00:10:36.360Z,19.99
2017-07-23T00:10:40.806Z,19.98
2017-07-23T00:10:45.261Z,19.99
2017-07-23T00:10:49.733Z,19.99
2017-07-23T00:10:53.843Z,19.98
2017-07-23T00:10:57.954Z,19.99
2017-07-23T00:11:02.411Z,19.98
2017-07-23T00:11:06.887Z,19.99
2017-07-23T00:11:11.108Z,19.98
2017-07-23T00:11:15.567Z,19.98
2017-07-23T00:11:20.017Z,19.98
2017-07-23T00:11:24.259Z,19.98
2017-07-23T00:11:28.724Z,19.99
2017-07-23T00:11:33.188Z,19.97
2017-07-23T00:11:37.650Z,19.97
2017-07-23T00:11:42.000Z,19.98
2017-07-23T00:11:46.462Z,19.97
2017-07-23T00:11:50.927Z,19.98
2017-07-23T00:11:55.395Z,19.98
2017-07-23T00:11:59.736Z,19.97
2017-07-23T00:12:04.201Z,19.97
2017-07-23T00:12:08.662Z,19.97
2017-07-23T00:12:12.910Z,19.97
2017-07-23T00:12:17.255Z,19.97
2017-07-23T00:12:21.587Z,19.97
2017-07-23T00:12:25.936Z,19.97
2017-07-23T00:12:30.413Z,19.97
2017-07-23T00:12:34.767Z,19.97
2017-07-23T00:12:39.222Z,19.97
2017-07-23T00:12:43.324Z,19.97
2017-07-23T00:12:47.812Z,19.97
2017-07-23T00:12:52.272Z,19.97
2017-07-23T00:12:56.745Z,19.97
2017-07-23T00:13:01.078Z,19.97
2017-07-23T00:13:05.904Z,19.97
2017-07-23T00:13:10.353Z,19.97
2017-07-23T00:13:14.585Z,19.96
2017-07-23T00:13:19.061Z,19.97
2017-07-23T00:13:23.432Z,19.97
2017-07-23T00:13:27.898Z,19.97
2017-07-23T00:13:32.336Z,19.98
2017-07-23T00:13:36.672Z,19.97
2017-07-23T00:13:41.143Z,19.97
2017-07-23T00:13:45.610Z,19.97
2017-07-23T00:13:50.077Z,19.98
2017-07-23T00:13:54.544Z,19.97
2017-07-23T00:13:59.008Z,19.97
2017-07-23T00:14:03.393Z,19.98
2017-07-23T00:14:07.857Z,19.97
2017-07-23T00:14:12.336Z,19.98
2017-07-23T00:14:16.688Z,19.98
2017-07-23T00:14:21.032Z,19.97
2017-07-23T00:14:25.485Z,19.98
2017-07-23T00:14:29.704Z,19.98
2017-07-23T00:14:34.061Z,19.98
2017-07-23T00:14:38.400Z,19.98
2017-07-23T00:14:42.728Z,19.98
2017-07-23T00:14:47.184Z,19.98
2017-07-23T00:14:51.652Z,19.98
2017-07-23T00:14:56.112Z,19.98
2017-07-23T00:15:00.335Z,19.99
2017-07-23T00:15:04.696Z,19.97
2017-07-23T00:15:09.159Z,19.99
2017-07-23T00:15:13.504Z,19.98
2017-07-23T00:15:17.971Z,19.99
2017-07-23T00:15:22.321Z,19.98
2017-07-23T00:15:26.788Z,19.98
2017-07-23T00:15:31.128Z,19.98
2017-07-23T00:15:35.481Z,19.99
2017-07-23T00:15:39.956Z,19.98
2017-07-23T00:15:44.300Z,19.99
2017-07-23T00:15:48.764Z,19.99
2017-07-23T00:15:53.228Z,19.99
2017-07-23T00:15:57.689Z,19.99
2017-07-23T00:16:02.164Z,19.99
2017-07-23T00:16:06.416Z,19.99
2017-07-23T00:16:10.884Z,19.99
2017-07-23T00:16:15.237Z,20
2017-07-23T00:16:19.587Z,20
2017-07-23T00:16:23.936Z,19.99
2017-07-23T00:16:28.163Z,19.99
2017-07-23T00:16:32.511Z,20
2017-07-23T00:16:36.977Z,20
2017-07-23T00:16:41.332Z,20
2017-07-23T00:16:45.783Z,20
2017-07-23T00:16:50.245Z,20.01
2017-07-23T00:16:54.710Z,20.01
2017-07-23T00:16:59.053Z,20.01
2017-07-23T00:17:03.621Z,20.01
2017-07-23T00:17:07.988Z,20.01
2017-07-23T00:17:12.460Z,20.01
2017-07-23T00:17:16.696Z,20.02
2017-07-23T00:17:21.158Z,20.02
2017-07-23T00:17:25.644Z,20.01
2017-07-23T00:17:29.987Z,20.02
2017-07-23T00:17:34.438Z,20.02
2017-07-23T00:17:38.897Z,20.03
2017-07-23T00:17:43.362Z,20.03
2017-07-23T00:17:47.817Z,20.03
2017-07-23T00:17:52.270Z,20.03
2017-07-23T00:17:56.623Z,20.03
2017-07-23T00:18:01.084Z,20.03
2017-07-23T00:18:05.432Z,20.04
2017-07-23T00:18:09.769Z,20.04
2017-07-23T00:18:14.127Z,20.04
2017-07-23T00:18:18.497Z,20.05
2017-07-23T00:18:22.950Z,20.04
2017-07-23T00:18:27.403Z,20.04
2017-07-23T00:18:31.860Z,20.05
2017-07-23T00:18:36.330Z,20.04
2017-07-23T00:18:40.669Z,20.04
2017-07-23T00:18:45.150Z,20.05
2017-07-23T00:18:49.621Z,20.05
2017-07-23T00:18:54.103Z,20.05
2017-07-23T00:18:58.576Z,20.05
2017-07-23T00:19:02.878Z,20.06
2017-07-23T00:19:07.234Z,20.06
2017-07-23T00:19:11.693Z,20.06
2017-07-23T00:19:16.150Z,20.06
2017-07-23T00:19:20.365Z,20.05
2017-07-23T00:19:24.722Z,20.06
2017-07-23T00:19:29.196Z,20.06
2017-07-23T00:19:33.648Z,20.07
2017-07-23T00:19:38.108Z,20.07
2017-07-23T00:19:42.581Z,20.06
2017-07-23T00:19:47.051Z,20.07
2017-07-23T00:19:51.395Z,20.07
2017-07-23T00:19:55.861Z,20.07
2017-07-23T00:20:00.097Z,20.08
2017-07-23T00:20:04.462Z,20.07
2017-07-23T00:20:08.672Z,20.08
2017-07-23T00:20:13.133Z,20.08
2017-07-23T00:20:17.479Z,20.08
2017-07-23T00:20:21.817Z,20.08
2017-07-23T00:20:26.163Z,20.08
2017-07-23T00:20:30.501Z,20.09
2017-07-23T00:20:34.853Z,20.09
2017-07-23T00:20:39.187Z,20.09
2017-07-23T00:20:43.551Z,20.1
2017-07-23T00:20:48.015Z,20.1
2017-07-23T00:20:52.472Z,20.1
2017-07-23T00:20:56.931Z,20.1
2017-07-23T00:21:01.397Z,20.11
2017-07-23T00:21:05.739Z,20.11
2017-07-23T00:21:09.953Z,20.1
2017-07-23T00:21:14.414Z,20.11
2017-07-23T00:21:18.878Z,20.11
2017-07-23T00:21:23.227Z,20.12
2017-07-23T00:21:27.462Z,20.12
2017-07-23T00:21:31.804Z,20.12
2017-07-23T00:21:36.050Z,20.13
2017-07-23T00:21:40.517Z,20.12
2017-07-23T00:21:44.993Z,20.13
2017-07-23T00:21:49.467Z,20.13
2017-07-23T00:21:53.927Z,20.14
2017-07-23T00:21:58.393Z,20.14
2017-07-23T00:22:02.851Z,20.14
2017-07-23T00:22:07.317Z,20.15
2017-07-23T00:22:11.544Z,20.15
2017-07-23T00:22:16.001Z,20.15
2017-07-23T00:22:20.347Z,20.16
2017-07-23T00:22:24.695Z,20.15
2017-07-23T00:22:29.156Z,20.16
2017-07-23T00:22:33.514Z,20.16
2017-07-23T00:22:37.848Z,20.16
2017-07-23T00:22:42.305Z,20.16
2017-07-23T00:22:46.776Z,20.16
2017-07-23T00:22:51.232Z,20.17
2017-07-23T00:22:55.689Z,20.17
2017-07-23T00:23:00.149Z,20.17
2017-07-23T00:23:04.558Z,20.17
2017-07-23T00:23:09.021Z,20.18
2017-07-23T00:23:13.476Z,20.17
2017-07-23T00:23:17.823Z,20.18
2017-07-23T00:23:22.272Z,20.19
2017-07-23T00:23:26.631Z,20.18
2017-07-23T00:23:31.094Z,20.19
2017-07-23T00:23:35.461Z,20.19
2017-07-23T00:23:39.919Z,20.2
2017-07-23T00:23:44.271Z,20.19
2017-07-23T00:23:48.740Z,20.19
2017-07-23T00:23:53.199Z,20.2
2017-07-23T00:23:57.666Z,20.2
2017-07-23T00:24:02.007Z,20.21
2017-07-23T00:24:06.488Z,20.21
2017-07-23T00:24:10.707Z,20.21
2017-07-23T00:24:15.170Z,20.21
2017-07-23T00:24:19.516Z,20.21
2017-07-23T00:24:23.991Z,20.22
2017-07-23T00:24:28.351Z,20.21
2017-07-23T00:24:32.693Z,20.22
2017-07-23T00:24:37.149Z,20.21
2017-07-23T00:24:41.502Z,20.22
2017-07-23T00:24:45.980Z,20.22
2017-07-23T00:24:50.450Z,20.22
2017-07-23T00:24:54.908Z,20.23
2017-07-23T00:24:59.247Z,20.23
2017-07-23T00:25:03.718Z,20.23
2017-07-23T00:25:08.063Z,20.23
2017-07-23T00:25:12.412Z,20.23
2017-07-23T00:25:16.895Z,20.23
2017-07-23T00:25:21.240Z,20.23
2017-07-23T00:25:25.580Z,20.24
2017-07-23T00:25:30.029Z,20.24
2017-07-23T00:25:34.421Z,20.24
2017-07-23T00:25:38.779Z,20.24
2017-07-23T00:25:43.112Z,20.24
2017-07-23T00:25:47.579Z,20.25
2017-07-23T00:25:51.820Z,20.24
2017-07-23T00:25:56.284Z,20.24
2017-07-23T00:26:00.512Z,20.25
2017-07-23T00:26:04.970Z,20.25
2017-07-23T00:26:09.461Z,20.25
2017-07-23T00:26:13.800Z,20.25
2017-07-23T00:26:18.262Z,20.24
2017-07-23T00:26:22.610Z,20.26
2017-07-23T00:26:26.966Z,20.25
2017-07-23T00:26:31.302Z,20.25
2017-07-23T00:26:35.771Z,20.24
2017-07-23T00:26:40.247Z,20.26
2017-07-23T00:26:44.627Z,20.26
2017-07-23T00:26:48.850Z,20.26
2017-07-23T00:26:53.199Z,20.26
2017-07-23T00:26:57.668Z,20.25
2017-07-23T00:27:02.013Z,20.26
2017-07-23T00:27:06.484Z,20.26
2017-07-23T00:27:10.835Z,20.26
2017-07-23T00:27:15.299Z,20.25
2017-07-23T00:27:19.753Z,20.26
2017-07-23T00:27:24.109Z,20.26
2017-07-23T00:27:28.578Z,20.26
2017-07-23T00:27:32.946Z,20.26
2017-07-23T00:27:37.294Z,20.26
2017-07-23T00:27:41.619Z,20.26
2017-07-23T00:27:45.952Z,20.26
2017-07-23T00:27:50.434Z,20.26
2017-07-23T00:27:54.889Z,20.26
2017-07-23T00:27:59.324Z,20.27
2017-07-23T00:28:03.801Z,20.27
2017-07-23T00:28:08.280Z,20.27
2017-07-23T00:28:12.391Z,20.26
2017-07-23T00:28:16.851Z,20.28
2017-07-23T00:28:21.196Z,20.26
2017-07-23T00:28:25.415Z,20.27
2017-07-23T00:28:29.759Z,20.27
2017-07-23T00:28:34.101Z,20.27
2017-07-23T00:28:38.335Z,20.27
2017-07-23T00:28:42.696Z,20.27
2017-07-23T00:28:47.166Z,20.26
2017-07-23T00:28:51.491Z,20.27
2017-07-23T00:28:55.974Z,20.27
2017-07-23T00:29:00.207Z,20.27
2017-07-23T00:29:04.816Z,20.28
2017-07-23T00:29:09.266Z,20.27
2017-07-23T00:29:13.602Z,20.27
2017-07-23T00:29:17.829Z,20.27
2017-07-23T00:29:22.172Z,20.27
2017-07-23T00:29:26.635Z,20.27
2017-07-23T00:29:30.976Z,20.27
2017-07-23T00:29:35.205Z,20.27
2017-07-23T00:29:39.644Z,20.27
2017-07-23T00:29:43.979Z,20.27
2017-07-23T00:29:48.412Z,20.27
2017-07-23T00:29:52.894Z,20.28
2017-07-23T00:29:57.350Z,20.28
2017-07-23T00:30:01.706Z,20.28
2017-07-23T00:30:06.057Z,20.28
2017-07-23T00:30:10.523Z,20.28
2017-07-23T00:30:14.981Z,20.28
2017-07-23T00:30:19.322Z,20.29
2017-07-23T00:30:23.785Z,20.28
2017-07-23T00:30:28.017Z,20.28
2017-07-23T00:30:32.369Z,20.27
2017-07-23T00:30:36.713Z,20.27
2017-07-23T00:30:41.053Z,20.28
2017-07-23T00:30:45.381Z,20.27
2017-07-23T00:30:49.833Z,20.28
2017-07-23T00:30:54.299Z,20.28
2017-07-23T00:30:58.664Z,20.27
2017-07-23T00:31:03.025Z,20.27
2017-07-23T00:31:07.489Z,20.28
2017-07-23T00:31:11.965Z,20.27
2017-07-23T00:31:16.311Z,20.27
2017-07-23T00:31:20.411Z,20.28
2017-07-23T00:31:24.738Z,20.27
2017-07-23T00:31:29.203Z,20.29
2017-07-23T00:31:33.457Z,20.28
2017-07-23T00:31:37.922Z,20.28
2017-07-23T00:31:42.265Z,20.28
2017-07-23T00:31:46.737Z,20.27
2017-07-23T00:31:51.087Z,20.27
2017-07-23T00:31:55.556Z,20.27
2017-07-23T00:32:00.006Z,20.27
2017-07-23T00:32:04.223Z,20.27
2017-07-23T00:32:08.459Z,20.27
2017-07-23T00:32:12.913Z,20.27
2017-07-23T00:32:17.137Z,20.27
2017-07-23T00:32:21.611Z,20.27
2017-07-23T00:32:25.970Z,20.27
2017-07-23T00:32:30.297Z,20.27
2017-07-23T00:32:34.768Z,20.27
2017-07-23T00:32:39.242Z,20.27
2017-07-23T00:32:43.698Z,20.26
2017-07-23T00:32:48.141Z,20.27
2017-07-23T00:32:52.606Z,20.26
2017-07-23T00:32:57.061Z,20.26
2017-07-23T00:33:01.422Z,20.26
2017-07-23T00:33:05.891Z,20.26
2017-07-23T00:33:10.364Z,20.25
2017-07-23T00:33:14.829Z,20.26
2017-07-23T00:33:19.072Z,20.26
2017-07-23T00:33:23.537Z,20.25
2017-07-23T00:33:28.012Z,20.26
2017-07-23T00:33:32.382Z,20.26
2017-07-23T00:33:36.831Z,20.25
2017-07-23T00:33:41.278Z,20.25
2017-07-23T00:33:45.750Z,20.25
2017-07-23T00:33:50.221Z,20.26
2017-07-23T00:33:54.717Z,20.26
2017-07-23T00:33:59.064Z,20.25
2017-07-23T00:34:03.511Z,20.24
2017-07-23T00:34:07.743Z,20.24
2017-07-23T00:34:12.211Z,20.24
2017-07-23T00:34:16.321Z,20.24
2017-07-23T00:34:20.541Z,20.24
2017-07-23T00:34:25.017Z,20.24
2017-07-23T00:34:29.472Z,20.23
2017-07-23T00:34:33.686Z,20.23
2017-07-23T00:34:38.156Z,20.23
2017-07-23T00:34:42.619Z,20.23
2017-07-23T00:34:47.077Z,20.23
2017-07-23T00:34:51.417Z,20.23
2017-07-23T00:34:55.755Z,20.24
2017-07-23T00:34:59.755Z,20.22
2017-07-23T00:35:04.094Z,20.23
2017-07-23T00:35:08.569Z,20.23
2017-07-23T00:35:13.033Z,20.23
2017-07-23T00:35:17.374Z,20.23
2017-07-23T00:35:21.835Z,20.22
2017-07-23T00:35:26.181Z,20.22
2017-07-23T00:35:30.523Z,20.22
2017-07-23T00:35:34.871Z,20.22
2017-07-23T00:35:39.337Z,20.21
2017-07-23T00:35:43.777Z,20.21
2017-07-23T00:35:47.905Z,20.22
2017-07-23T00:35:52.372Z,20.21
2017-07-23T00:35:56.833Z,20.21
2017-07-23T00:36:01.317Z,20.21
2017-07-23T00:36:05.884Z,20.21
2017-07-23T00:36:10.355Z,20.2
2017-07-23T00:36:14.800Z,20.21
2017-07-23T00:36:19.148Z,20.21
2017-07-23T00:36:23.620Z,20.21
2017-07-23T00:36:28.093Z,20.2
2017-07-23T00:36:32.569Z,20.2
2017-07-23T00:36:36.920Z,20.2
2017-07-23T00:36:41.137Z,20.2
2017-07-23T00:36:45.477Z,20.2
2017-07-23T00:36:49.935Z,20.2
2017-07-23T00:36:54.805Z,20.2
2017-07-23T00:36:59.267Z,20.2
2017-07-23T00:37:04.087Z,20.2
2017-07-23T00:37:08.571Z,20.19
2017-07-23T00:37:13.041Z,20.2
2017-07-23T00:37:17.414Z,20.19
2017-07-23T00:37:21.791Z,20.19
2017-07-23T00:37:26.138Z,20.2
2017-07-23T00:37:30.465Z,20.19
2017-07-23T00:37:34.924Z,20.2
2017-07-23T00:37:39.056Z,20.19
2017-07-23T00:37:43.398Z,20.19
2017-07-23T00:37:47.861Z,20.2
2017-07-23T00:37:52.332Z,20.18
2017-07-23T00:37:56.796Z,20.19
2017-07-23T00:38:01.254Z,20.18
2017-07-23T00:38:05.795Z,20.19
2017-07-23T00:38:10.262Z,20.19
2017-07-23T00:38:14.728Z,20.19
2017-07-23T00:38:19.066Z,20.19
2017-07-23T00:38:23.413Z,20.19
2017-07-23T00:38:27.871Z,20.19
2017-07-23T00:38:32.337Z,20.18
2017-07-23T00:38:36.793Z,20.18
2017-07-23T00:38:41.008Z,20.19
2017-07-23T00:38:45.490Z,20.18
2017-07-23T00:38:49.955Z,20.18
2017-07-23T00:38:54.418Z,20.18
2017-07-23T00:38:58.873Z,20.18
2017-07-23T00:39:03.371Z,20.18
2017-07-23T00:39:07.828Z,20.18
2017-07-23T00:39:12.292Z,20.17
2017-07-23T00:39:16.646Z,20.17
2017-07-23T00:39:21.114Z,20.16
2017-07-23T00:39:25.345Z,20.16
2017-07-23T00:39:29.812Z,20.16
2017-07-23T00:39:34.151Z,20.16
2017-07-23T00:39:38.510Z,20.16
2017-07-23T00:39:42.849Z,20.16
2017-07-23T00:39:47.299Z,20.16
2017-07-23T00:39:51.674Z,20.15
2017-07-23T00:39:56.136Z,20.15
2017-07-23T00:40:00.469Z,20.15
2017-07-23T00:40:04.994Z,20.15
2017-07-23T00:40:09.362Z,20.15
2017-07-23T00:40:13.711Z,20.15
2017-07-23T00:40:18.183Z,20.15
2017-07-23T00:40:22.511Z,20.15
2017-07-23T00:40:26.864Z,20.15
2017-07-23T00:40:31.204Z,20.15
2017-07-23T00:40:35.651Z,20.14
2017-07-23T00:40:40.106Z,20.14
2017-07-23T00:40:44.581Z,20.14
2017-07-23T00:40:49.052Z,20.14
2017-07-23T00:40:53.296Z,20.14
2017-07-23T00:40:57.512Z,20.14
2017-07-23T00:41:01.994Z,20.14
2017-07-23T00:41:06.442Z,20.14
2017-07-23T00:41:10.924Z,20.14
2017-07-23T00:41:15.384Z,20.14
2017-07-23T00:41:19.841Z,20.14
2017-07-23T00:41:24.314Z,20.13
2017-07-23T00:41:28.645Z,20.14
2017-07-23T00:41:32.864Z,20.13
2017-07-23T00:41:37.329Z,20.13
2017-07-23T00:41:41.790Z,20.12
2017-07-23T00:41:46.126Z,20.12
2017-07-23T00:41:50.458Z,20.13
2017-07-23T00:41:55.168Z,20.12
2017-07-23T00:41:59.502Z,20.11
2017-07-23T00:42:03.860Z,20.11
2017-07-23T00:42:08.345Z,20.12
2017-07-23T00:42:12.831Z,20.1
2017-07-23T00:42:17.172Z,20.1
2017-07-23T00:42:21.395Z,20.1
2017-07-23T00:42:25.730Z,20.1
2017-07-23T00:42:30.205Z,20.1
2017-07-23T00:42:34.659Z,20.09
2017-07-23T00:42:39.139Z,20.09
2017-07-23T00:42:43.481Z,20.09
2017-07-23T00:42:47.950Z,20.08
2017-07-23T00:42:52.417Z,20.08
2017-07-23T00:42:56.866Z,20.07
2017-07-23T00:43:01.086Z,20.06
2017-07-23T00:43:05.534Z,20.07
2017-07-23T00:43:09.990Z,20.06
2017-07-23T00:43:14.461Z,20.06
2017-07-23T00:43:18.936Z,20.06
2017-07-23T00:43:23.292Z,20.06
2017-07-23T00:43:27.756Z,20.05
2017-07-23T00:43:31.981Z,20.05
2017-07-23T00:43:36.454Z,20.05
2017-07-23T00:43:40.785Z,20.05
2017-07-23T00:43:45.252Z,20.05
2017-07-23T00:43:49.701Z,20.04
2017-07-23T00:43:54.216Z,20.04
2017-07-23T00:43:58.586Z,20.03
2017-07-23T00:44:02.920Z,20.03
2017-07-23T00:44:07.375Z,20.02
2017-07-23T00:44:11.840Z,20.02
2017-07-23T00:44:16.297Z,20.02
2017-07-23T00:44:20.649Z,20.02
2017-07-23T00:44:24.981Z,20.01
2017-07-23T00:44:29.317Z,20
2017-07-23T00:44:33.768Z,20
2017-07-23T00:44:38.225Z,19.99
2017-07-23T00:44:42.693Z,19.99
2017-07-23T00:44:47.077Z,19.98
2017-07-23T00:44:51.535Z,19.98
2017-07-23T00:44:55.995Z,19.95
2017-07-23T00:45:00.341Z,19.95
2017-07-23T00:45:04.807Z,19.94
2017-07-23T00:45:09.275Z,19.93
2017-07-23T00:45:13.747Z,19.94
2017-07-23T00:45:17.990Z,19.93
2017-07-23T00:45:22.446Z,19.93
2017-07-23T00:45:26.919Z,19.92
2017-07-23T00:45:31.150Z,19.92
2017-07-23T00:45:35.617Z,19.91
2017-07-23T00:45:40.058Z,19.9
2017-07-23T00:45:44.287Z,19.9
2017-07-23T00:45:48.755Z,19.9
2017-07-23T00:45:53.213Z,19.89
2017-07-23T00:45:57.567Z,19.89
2017-07-23T00:46:02.078Z,19.87
2017-07-23T00:46:06.550Z,19.88
2017-07-23T00:46:10.914Z,19.86
2017-07-23T00:46:15.264Z,19.86
2017-07-23T00:46:19.604Z,19.86
2017-07-23T00:46:23.949Z,19.84
2017-07-23T00:46:28.416Z,19.84
2017-07-23T00:46:32.531Z,19.84
2017-07-23T00:46:36.862Z,19.82
2017-07-23T00:46:41.217Z,19.82
2017-07-23T00:46:45.670Z,19.8
2017-07-23T00:46:49.998Z,19.8
2017-07-23T00:46:54.454Z,19.79
2017-07-23T00:46:58.912Z,19.78
2017-07-23T00:47:03.363Z,19.76
2017-07-23T00:47:07.589Z,19.75
2017-07-23T00:47:11.943Z,19.75
2017-07-23T00:47:16.292Z,19.7
2017-07-23T00:47:20.627Z,19.69
2017-07-23T00:47:25.085Z,19.67
2017-07-23T00:47:29.537Z,19.66
2017-07-23T00:47:33.891Z,19.64
2017-07-23T00:47:38.244Z,19.62
2017-07-23T00:47:42.716Z,19.6
2017-07-23T00:47:47.076Z,19.58
2017-07-23T00:47:51.561Z,19.57
2017-07-23T00:47:56.023Z,19.56
2017-07-23T00:48:00.245Z,19.54
2017-07-23T00:48:04.703Z,19.53
2017-07-23T00:48:09.041Z,19.51
2017-07-23T00:48:13.485Z,19.49
2017-07-23T00:48:17.947Z,19.47
2017-07-23T00:48:22.388Z,19.45
2017-07-23T00:48:26.871Z,19.44
2017-07-23T00:48:31.200Z,19.42
2017-07-23T00:48:35.665Z,19.4
2017-07-23T00:48:40.119Z,19.39
2017-07-23T00:48:44.378Z,19.36
2017-07-23T00:48:48.736Z,19.35
2017-07-23T00:48:53.078Z,19.33
2017-07-23T00:48:57.546Z,19.29
2017-07-23T00:49:01.998Z,19.28
2017-07-23T00:49:06.444Z,19.27
2017-07-23T00:49:10.908Z,19.24
2017-07-23T00:49:15.380Z,19.23
2017-07-23T00:49:19.717Z,19.21
2017-07-23T00:49:24.173Z,19.19
2017-07-23T00:49:28.638Z,19.18
2017-07-23T00:49:32.986Z,19.17
2017-07-23T00:49:37.443Z,19.15
2017-07-23T00:49:41.904Z,19.13
2017-07-23T00:49:46.246Z,19.11
2017-07-23T00:49:50.729Z,19.1
2017-07-23T00:49:55.070Z,19.08
2017-07-23T00:49:59.427Z,19.06
2017-07-23T00:50:04.040Z,19.04
2017-07-23T00:50:08.507Z,19.02
2017-07-23T00:50:12.969Z,19.01
2017-07-23T00:50:17.433Z,18.99
2017-07-23T00:50:21.774Z,18.96
2017-07-23T00:50:26.241Z,18.95
2017-07-23T00:50:30.694Z,18.93
2017-07-23T00:50:35.038Z,18.91
2017-07-23T00:50:39.387Z,18.89
2017-07-23T00:50:43.752Z,18.87
2017-07-23T00:50:48.219Z,18.86
2017-07-23T00:50:52.573Z,18.84
2017-07-23T00:50:57.060Z,18.82
2017-07-23T00:51:01.294Z,18.81
2017-07-23T00:51:05.741Z,18.79
2017-07-23T00:51:10.200Z,18.78
2017-07-23T00:51:14.664Z,18.77
2017-07-23T00:51:19.007Z,18.75
2017-07-23T00:51:23.343Z,18.73
2017-07-23T00:51:27.790Z,18.71
2017-07-23T00:51:31.909Z,18.71
2017-07-23T00:51:36.364Z,18.69
2017-07-23T00:51:40.724Z,18.67
2017-07-23T00:51:45.177Z,18.67
2017-07-23T00:51:49.635Z,18.65
2017-07-23T00:51:54.079Z,18.63
2017-07-23T00:51:58.523Z,18.62
2017-07-23T00:52:03.010Z,18.61
2017-07-23T00:52:07.379Z,18.6
2017-07-23T00:52:11.846Z,18.59
2017-07-23T00:52:16.309Z,18.59
2017-07-23T00:52:20.649Z,18.57
2017-07-23T00:52:25.105Z,18.55
2017-07-23T00:52:29.348Z,18.55
2017-07-23T00:52:33.824Z,18.53
2017-07-23T00:52:38.168Z,18.52
2017-07-23T00:52:42.648Z,18.51
2017-07-23T00:52:47.109Z,18.5
2017-07-23T00:52:51.576Z,18.49
2017-07-23T00:52:56.042Z,18.48
2017-07-23T00:53:00.515Z,18.47
2017-07-23T00:53:04.849Z,18.45
2017-07-23T00:53:09.307Z,18.43
2017-07-23T00:53:13.673Z,18.42
2017-07-23T00:53:18.133Z,18.42
2017-07-23T00:53:22.594Z,18.39
2017-07-23T00:53:26.810Z,18.38
2017-07-23T00:53:31.143Z,18.37
2017-07-23T00:53:35.618Z,18.36
2017-07-23T00:53:40.080Z,18.34
2017-07-23T00:53:44.556Z,18.34
2017-07-23T00:53:48.769Z,18.32
2017-07-23T00:53:53.234Z,18.31
2017-07-23T00:53:57.582Z,18.3
2017-07-23T00:54:02.139Z,18.3
2017-07-23T00:54:06.649Z,18.29
2017-07-23T00:54:11.120Z,18.28
2017-07-23T00:54:15.569Z,18.27
2017-07-23T00:54:19.917Z,18.26
2017-07-23T00:54:24.519Z,18.24
2017-07-23T00:54:28.980Z,18.24
2017-07-23T00:54:33.437Z,18.22
2017-07-23T00:54:37.905Z,18.21
2017-07-23T00:54:42.227Z,18.2
2017-07-23T00:54:46.673Z,18.2
2017-07-23T00:54:51.000Z,18.19
2017-07-23T00:54:55.361Z,18.18
2017-07-23T00:54:59.819Z,18.18
2017-07-23T00:55:04.253Z,18.17
2017-07-23T00:55:08.705Z,18.17
2017-07-23T00:55:13.061Z,18.15
2017-07-23T00:55:17.511Z,18.14
2017-07-23T00:55:21.855Z,18.14
2017-07-23T00:55:26.329Z,18.12
2017-07-23T00:55:30.792Z,18.11
2017-07-23T00:55:35.133Z,18.11
2017-07-23T00:55:39.606Z,18.1
2017-07-23T00:55:43.948Z,18.1
2017-07-23T00:55:48.418Z,18.08
2017-07-23T00:55:52.750Z,18.08
2017-07-23T00:55:57.195Z,18.07
2017-07-23T00:56:01.548Z,18.07
2017-07-23T00:56:06.037Z,18.06
2017-07-23T00:56:10.507Z,18.06
2017-07-23T00:56:14.846Z,18.05
2017-07-23T00:56:19.192Z,18.04
2017-07-23T00:56:23.655Z,18.03
2017-07-23T00:56:28.021Z,18.02
2017-07-23T00:56:32.491Z,18.01
2017-07-23T00:56:36.838Z,17.99
2017-07-23T00:56:41.306Z,17.99
2017-07-23T00:56:45.769Z,17.99
2017-07-23T00:56:50.229Z,17.97
2017-07-23T00:56:54.704Z,17.97
2017-07-23T00:56:59.064Z,17.97